Time;durP1;ratioP1;P1;durP2;ratioP2;P2;SDS_P1;SDS_P2;PMS_P1;PMS_P2;Temp;Humidity;BMP_temperature;BMP_pressure;BME280_temperature;BME280_humidity;BME280_pressure;Samples;Min_cycle;Max_cycle;Signal;HPM_P1;HPM_P2
2022/07/09 00:01:11;;;;;;;;;4.67;4.67;;;;;22.65;41.78;102599.44;5097405;27;71447;-48
2022/07/09 00:03:36;;;;;;;;;6.33;5.33;;;;;22.64;41.05;102597.69;5098855;27;60664;-47
2022/07/09 00:06:02;;;;;;;;;4.67;4.67;;;;;22.63;41.29;102604.09;5098766;27;68586;-49
2022/07/09 00:08:28;;;;;;;;;5.00;4.33;;;;;22.58;42.07;102599.03;5099884;27;46090;-50
2022/07/09 00:10:53;;;;;;;;;3.00;3.00;;;;;22.55;41.89;102599.22;5101028;27;54896;-48
2022/07/09 00:13:19;;;;;;;;;4.00;4.00;;;;;22.54;41.73;102604.75;5102104;27;67348;-47
2022/07/09 00:15:44;;;;;;;;;3.00;3.00;;;;;22.53;41.65;102598.50;5100950;27;45373;-47
2022/07/09 00:18:09;;;;;;;;;5.00;5.00;;;;;22.51;41.53;102600.44;5099761;27;46237;-46
2022/07/09 00:20:35;;;;;;;;;4.00;4.00;;;;;22.50;41.61;102595.13;5100112;27;45499;-47
2022/07/09 00:23:00;;;;;;;;;5.67;5.67;;;;;22.49;42.28;102593.38;5104925;27;64112;-48
2022/07/09 00:25:25;;;;;;;;;5.33;4.00;;;;;22.50;41.71;102590.56;5101132;27;64500;-48
2022/07/09 00:27:51;;;;;;;;;5.67;5.00;;;;;22.51;42.18;102589.59;5099339;27;67726;-47
2022/07/09 00:30:16;;;;;;;;;5.00;5.00;;;;;22.52;41.76;102588.63;5100528;27;45491;-47
2022/07/09 00:32:41;;;;;;;;;5.33;5.33;;;;;22.51;41.35;102584.16;5100823;27;45437;-48
2022/07/09 00:35:07;;;;;;;;;5.67;5.00;;;;;22.47;41.66;102582.66;5101600;27;45438;-48
2022/07/09 00:37:32;;;;;;;;;5.00;5.00;;;;;22.46;41.98;102586.34;5100392;27;45994;-47
2022/07/09 00:39:58;;;;;;;;;4.67;4.67;;;;;22.48;42.28;102584.41;5100322;27;68529;-48
2022/07/09 00:42:24;;;;;;;;;6.67;5.00;;;;;22.49;42.40;102590.69;5100551;27;45595;-47
2022/07/09 00:44:50;;;;;;;;;7.00;5.33;;;;;22.48;42.36;102581.69;5100682;27;45546;-47
2022/07/09 00:47:16;;;;;;;;;4.33;4.33;;;;;22.48;41.83;102588.97;5100023;27;45963;-49
2022/07/09 00:49:41;;;;;;;;;5.33;5.33;;;;;22.48;42.48;102587.13;5100803;27;45364;-48
2022/07/09 00:52:10;;;;;;;;;4.33;4.33;;;;;22.49;42.41;102591.56;5099687;27;45374;-48
2022/07/09 00:54:36;;;;;;;;;4.67;4.67;;;;;22.50;42.57;102593.28;5086733;27;45510;-48
2022/07/09 00:57:04;;;;;;;;;3.00;3.00;;;;;22.49;42.09;102583.44;5098885;27;46935;-48
2022/07/09 00:59:29;;;;;;;;;7.00;5.33;;;;;22.47;42.10;102579.94;5098666;27;45496;-46
2022/07/09 01:01:55;;;;;;;;;5.33;4.33;;;;;22.48;42.70;102581.69;5098944;27;62844;-48
2022/07/09 01:04:20;;;;;;;;;5.67;5.67;;;;;22.50;42.49;102582.44;5098560;27;67235;-47
2022/07/09 01:06:46;;;;;;;;;5.33;5.33;;;;;22.51;42.21;102580.59;5098190;27;72716;-47
2022/07/09 01:09:13;;;;;;;;;5.00;5.00;;;;;22.51;42.52;102578.75;5100909;27;45244;-47
2022/07/09 01:11:38;;;;;;;;;4.00;4.00;;;;;22.52;42.81;102576.91;5100162;27;45418;-48
2022/07/09 01:14:03;;;;;;;;;5.00;5.00;;;;;22.52;42.76;102568.78;5096258;27;67839;-47
2022/07/09 01:16:37;;;;;;;;;4.33;4.33;;;;;22.51;42.66;102570.59;5098083;27;74184;-48
2022/07/09 01:19:02;;;;;;;;;4.33;4.33;;;;;22.52;42.81;102561.50;5088469;27;45329;-47
2022/07/09 01:21:28;;;;;;;;;8.00;6.00;;;;;22.52;42.52;102566.06;5099634;27;45560;-49
2022/07/09 01:23:53;;;;;;;;;5.33;5.00;;;;;22.52;42.58;102563.38;5099573;27;66339;-47
2022/07/09 01:26:21;;;;;;;;;5.00;5.00;;;;;22.51;42.27;102559.75;5097902;27;69080;-48
2022/07/09 01:28:47;;;;;;;;;6.67;5.00;;;;;22.50;42.35;102558.03;5097903;27;45435;-47
2022/07/09 01:31:13;;;;;;;;;4.67;4.67;;;;;22.50;42.86;102565.31;5098566;27;45266;-47
2022/07/09 01:33:38;;;;;;;;;4.33;4.33;;;;;22.49;42.54;102556.31;5095402;27;45346;-47
2022/07/09 01:36:05;;;;;;;;;5.67;5.67;;;;;22.48;42.22;102561.84;5099195;27;46167;-47
2022/07/09 01:38:30;;;;;;;;;5.67;5.00;;;;;22.48;42.38;102556.44;5099938;27;45293;-48
2022/07/09 01:40:57;;;;;;;;;5.00;5.00;;;;;22.48;43.02;102551.00;5098871;27;68180;-49
2022/07/09 01:43:22;;;;;;;;;9.00;7.00;;;;;22.48;42.69;102554.56;5100153;27;45230;-47
2022/07/09 01:45:47;;;;;;;;;5.67;5.67;;;;;22.49;42.22;102552.72;5099072;27;51649;-47
2022/07/09 01:48:13;;;;;;;;;5.33;5.00;;;;;22.47;42.73;102550.13;5097985;27;45414;-47
2022/07/09 01:50:38;;;;;;;;;5.00;5.00;;;;;22.44;42.74;102543.09;5098660;27;45579;-48
2022/07/09 01:53:04;;;;;;;;;5.00;5.00;;;;;22.43;42.65;102552.19;5099176;27;45402;-47
2022/07/09 01:55:29;;;;;;;;;7.00;7.00;;;;;22.41;42.44;102545.16;5098571;27;46071;-46
2022/07/09 01:57:55;;;;;;;;;4.33;4.33;;;;;22.38;42.67;102534.53;5099191;27;45329;-47
2022/07/09 02:00:20;;;;;;;;;7.00;5.00;;;;;22.36;42.66;102533.78;5099048;27;63804;-47
2022/07/09 02:02:45;;;;;;;;;6.33;6.33;;;;;22.35;42.48;102530.19;5098344;27;45499;-46
2022/07/09 02:05:11;;;;;;;;;6.33;5.00;;;;;22.35;43.24;102534.75;5099103;27;71352;-47
2022/07/09 02:07:36;;;;;;;;;6.00;5.00;;;;;22.34;43.01;102527.59;5097753;27;45492;-48
2022/07/09 02:10:03;;;;;;;;;5.00;5.00;;;;;22.34;43.51;102524.88;5097920;27;62026;-47
2022/07/09 02:12:28;;;;;;;;;5.67;5.67;;;;;22.31;43.04;102524.13;5099479;27;45428;-47
2022/07/09 02:14:54;;;;;;;;;7.33;6.33;;;;;22.27;43.06;102522.59;5098339;27;46121;-47
2022/07/09 02:17:20;;;;;;;;;5.33;5.33;;;;;22.24;43.72;102525.56;5098463;27;67679;-46
2022/07/09 02:19:45;;;;;;;;;5.00;5.00;;;;;22.21;43.59;102524.91;5097830;27;45446;-47
2022/07/09 02:22:10;;;;;;;;;5.67;5.67;;;;;22.17;43.46;102526.97;5093941;27;68034;-48
2022/07/09 02:24:36;;;;;;;;;6.00;6.00;;;;;22.14;43.93;102524.50;5094464;27;46000;-52
2022/07/09 02:27:01;;;;;;;;;4.67;4.67;;;;;22.11;43.71;102520.16;5096759;27;71442;-51
2022/07/09 02:29:26;;;;;;;;;8.33;7.00;;;;;22.08;43.39;102520.34;5098366;27;45750;-50
2022/07/09 02:31:54;;;;;;;;;6.67;6.00;;;;;22.06;44.13;102518.72;5097707;27;45280;-48
2022/07/09 02:34:20;;;;;;;;;6.67;6.67;;;;;22.04;43.99;102509.88;5099340;27;47161;-49
2022/07/09 02:36:45;;;;;;;;;7.00;6.33;;;;;22.02;44.38;102520.81;5098427;27;45889;-48
2022/07/09 02:39:11;;;;;;;;;7.00;5.67;;;;;22.00;44.14;102516.50;5098275;27;65841;-49
2022/07/09 02:41:36;;;;;;;;;9.00;6.00;;;;;21.96;44.70;102515.84;5098424;27;45352;-47
2022/07/09 02:44:01;;;;;;;;;6.67;5.00;;;;;21.93;43.84;102510.66;5097391;27;72987;-50
2022/07/09 02:46:26;;;;;;;;;6.00;6.00;;;;;21.87;44.47;102520.06;5098797;27;58652;-48
2022/07/09 02:48:52;;;;;;;;;4.67;4.33;;;;;21.79;44.59;102512.47;5098596;27;45520;-47
2022/07/09 02:51:17;;;;;;;;;6.00;5.00;;;;;21.75;44.75;102518.25;5097559;27;65903;-47
2022/07/09 02:53:42;;;;;;;;;5.00;5.00;;;;;21.70;45.08;102521.25;5096294;27;73053;-48
2022/07/09 02:56:08;;;;;;;;;7.67;6.00;;;;;21.64;45.20;102519.84;5097624;27;66046;-48
2022/07/09 02:58:33;;;;;;;;;5.00;5.00;;;;;21.60;44.49;102522.88;5097277;27;45376;-48
2022/07/09 03:00:59;;;;;;;;;5.00;5.00;;;;;21.55;45.11;102522.34;5097687;27;51095;-48
2022/07/09 03:03:24;;;;;;;;;6.33;5.00;;;;;21.49;45.26;102520.91;5098190;27;45478;-47
2022/07/09 03:05:50;;;;;;;;;7.00;6.00;;;;;21.45;44.92;102519.38;5097357;27;45274;-48
2022/07/09 03:08:16;;;;;;;;;5.00;5.00;;;;;21.41;45.53;102526.00;5096749;27;67119;-48
2022/07/09 03:10:41;;;;;;;;;7.33;7.00;;;;;21.37;45.14;102528.03;5097607;27;45331;-48
2022/07/09 03:13:06;;;;;;;;;8.67;8.00;;;;;21.35;45.29;102526.41;5097688;27;69520;-49
2022/07/09 03:15:32;;;;;;;;;7.00;7.00;;;;;21.31;45.46;102532.03;5096997;27;57856;-47
2022/07/09 03:17:57;;;;;;;;;7.00;7.00;;;;;21.30;45.38;102524.00;5097522;27;68010;-49
2022/07/09 03:20:23;;;;;;;;;7.33;7.33;;;;;21.29;45.92;102525.00;5097526;27;45341;-50
2022/07/09 03:22:48;;;;;;;;;9.67;9.00;;;;;21.26;45.96;102519.78;5097696;27;46165;-49
2022/07/09 03:25:13;;;;;;;;;5.00;5.00;;;;;21.24;45.53;102519.88;5097744;27;68678;-47
2022/07/09 03:27:39;;;;;;;;;6.00;6.00;;;;;21.21;45.60;102519.22;5093820;27;67509;-49
2022/07/09 03:30:06;;;;;;;;;7.33;7.33;;;;;21.14;45.66;102526.88;5097643;27;54907;-48
2022/07/09 03:32:31;;;;;;;;;6.00;6.00;;;;;21.09;46.32;102524.50;5092851;27;46975;-49
2022/07/09 03:34:57;;;;;;;;;7.00;7.00;;;;;21.06;46.47;102526.56;5088745;27;45350;-46
2022/07/09 03:37:22;;;;;;;;;7.00;7.00;;;;;21.02;46.48;102522.31;5101738;27;65045;-48
2022/07/09 03:39:48;;;;;;;;;7.67;7.67;;;;;20.99;46.38;102526.97;5085991;27;70405;-47
2022/07/09 03:42:14;;;;;;;;;10.33;9.33;;;;;20.97;46.26;102523.47;5093263;27;72480;-47
2022/07/09 03:44:39;;;;;;;;;10.00;7.33;;;;;20.97;46.27;102533.44;5087176;27;45401;-47
2022/07/09 03:47:05;;;;;;;;;7.67;7.33;;;;;20.95;46.95;102538.97;5098697;27;45837;-48
2022/07/09 03:49:31;;;;;;;;;9.67;8.00;;;;;20.96;46.54;102531.69;5101897;27;45374;-47
2022/07/09 03:51:56;;;;;;;;;9.00;8.33;;;;;20.94;46.56;102537.22;5095850;27;74596;-48
2022/07/09 03:54:21;;;;;;;;;6.67;5.67;;;;;20.93;46.35;102540.03;5095391;27;70287;-47
2022/07/09 03:56:47;;;;;;;;;8.67;8.67;;;;;20.93;46.59;102543.59;5087751;27;45670;-47
2022/07/09 03:59:12;;;;;;;;;9.33;7.00;;;;;20.91;46.95;102552.78;5090802;27;67122;-46
2022/07/09 04:01:37;;;;;;;;;9.33;7.00;;;;;20.88;46.86;102551.13;5090787;27;67215;-48
2022/07/09 04:04:04;;;;;;;;;7.67;7.67;;;;;20.87;46.43;102562.06;5099365;27;72111;-50
2022/07/09 04:06:29;;;;;;;;;8.00;8.00;;;;;20.83;46.60;102558.69;5090232;27;45497;-49
2022/07/09 04:08:55;;;;;;;;;10.67;9.33;;;;;20.81;46.78;102557.94;5094471;27;45467;-48
2022/07/09 04:11:20;;;;;;;;;7.00;7.00;;;;;20.79;46.82;102562.56;5100437;27;46416;-48
2022/07/09 04:13:45;;;;;;;;;7.00;7.00;;;;;20.78;46.99;102556.31;5096963;27;45472;-47
2022/07/09 04:16:11;;;;;;;;;8.00;8.00;;;;;20.78;47.27;102555.41;5100622;27;48192;-47
2022/07/09 04:18:36;;;;;;;;;9.00;9.00;;;;;20.78;47.46;102555.41;5100767;27;45356;-46
2022/07/09 04:21:02;;;;;;;;;7.00;7.00;;;;;20.73;47.19;102555.75;5096933;27;46993;-48
2022/07/09 04:23:27;;;;;;;;;8.00;7.00;;;;;20.69;47.73;102554.19;5100825;27;45740;-46
2022/07/09 04:25:53;;;;;;;;;6.33;6.33;;;;;20.66;47.24;102555.25;5100798;27;45911;-47
2022/07/09 04:28:19;;;;;;;;;9.00;7.67;;;;;20.61;48.02;102551.97;5089318;27;45689;-47
2022/07/09 04:30:47;;;;;;;;;8.00;8.00;;;;;20.59;47.52;102553.91;5098016;27;45495;-46
2022/07/09 04:33:13;;;;;;;;;8.33;8.33;;;;;20.56;47.72;102556.81;5100218;27;59606;-46
2022/07/09 04:35:38;;;;;;;;;6.33;6.33;;;;;20.56;48.23;102553.22;5098748;27;45476;-46
2022/07/09 04:38:04;;;;;;;;;9.00;8.00;;;;;20.54;47.78;102555.19;5098893;27;45465;-46
2022/07/09 04:40:29;;;;;;;;;7.00;7.00;;;;;20.53;48.14;102543.47;5100466;27;45468;-49
2022/07/09 04:42:55;;;;;;;;;9.67;9.00;;;;;20.53;47.91;102546.19;5099785;27;53019;-47
2022/07/09 04:45:21;;;;;;;;;8.00;8.00;;;;;20.55;47.81;102546.09;5099817;27;45446;-47
2022/07/09 04:47:46;;;;;;;;;9.33;7.33;;;;;20.56;47.90;102553.22;5098793;27;45542;-48
2022/07/09 04:50:11;;;;;;;;;9.67;8.33;;;;;20.55;48.07;102556.91;5099368;27;45700;-46
2022/07/09 04:52:38;;;;;;;;;8.00;6.33;;;;;20.56;48.28;102558.63;5098108;27;59236;-46
2022/07/09 04:55:04;;;;;;;;;7.00;6.67;;;;;20.52;48.12;102560.69;5099516;27;45821;-47
2022/07/09 04:57:29;;;;;;;;;7.67;7.67;;;;;20.50;48.73;102557.19;5098122;27;45458;-46
2022/07/09 05:00:03;;;;;;;;;10.67;8.33;;;;;20.50;48.36;102562.59;5098779;27;45376;-47
2022/07/09 05:02:28;;;;;;;;;9.33;8.33;;;;;20.52;48.61;102557.97;5098979;27;45544;-47
2022/07/09 05:04:54;;;;;;;;;10.67;9.67;;;;;20.53;48.34;102564.25;5096402;27;70334;-47
2022/07/09 05:07:19;;;;;;;;;13.33;9.00;;;;;20.50;48.31;102560.75;5097852;27;66579;-47
2022/07/09 05:09:44;;;;;;;;;11.67;9.00;;;;;20.49;48.71;102564.47;5097402;27;73676;-46
2022/07/09 05:12:12;;;;;;;;;8.33;7.00;;;;;20.49;48.54;102564.47;5098334;27;69313;-47
2022/07/09 05:14:38;;;;;;;;;12.00;10.67;;;;;20.50;48.36;102562.59;5096684;27;45543;-48
2022/07/09 05:17:04;;;;;;;;;10.33;10.33;;;;;20.54;48.40;102566.00;5100035;27;45409;-47
2022/07/09 05:19:30;;;;;;;;;13.00;11.67;;;;;20.56;48.57;102559.53;5098757;27;46227;-47
2022/07/09 05:21:56;;;;;;;;;9.00;9.00;;;;;20.59;48.25;102558.44;5099296;27;45846;-47
2022/07/09 05:24:21;;;;;;;;;15.67;11.00;;;;;20.61;48.51;102562.78;5099725;27;45472;-46
2022/07/09 05:26:47;;;;;;;;;10.00;10.00;;;;;20.62;48.12;102564.53;5099383;27;45684;-47
2022/07/09 05:29:12;;;;;;;;;9.00;8.00;;;;;20.65;47.84;102563.47;5098485;27;68530;-46
2022/07/09 05:31:38;;;;;;;;;8.33;8.33;;;;;20.66;48.50;102566.06;5098000;27;67287;-51
2022/07/09 05:34:04;;;;;;;;;11.00;8.00;;;;;20.66;48.47;102557.94;5097865;27;45758;-51
2022/07/09 05:36:30;;;;;;;;;10.00;10.00;;;;;20.71;48.03;102562.22;5098148;27;45874;-51
2022/07/09 05:38:56;;;;;;;;;11.00;9.00;;;;;20.72;48.47;102563.97;5092280;27;45970;-49
2022/07/09 05:41:22;;;;;;;;;10.00;8.00;;;;;20.72;48.07;102561.25;5091882;27;45400;-49
2022/07/09 05:43:47;;;;;;;;;9.67;7.33;;;;;20.75;47.98;102561.03;5095978;27;45423;-51
2022/07/09 05:46:13;;;;;;;;;9.00;7.67;;;;;20.79;47.96;102554.47;5097920;27;45608;-47
2022/07/09 05:48:38;;;;;;;;;8.33;8.33;;;;;20.84;48.36;102554.16;5097717;27;46190;-47
2022/07/09 05:51:03;;;;;;;;;7.00;7.00;;;;;20.87;48.33;102556.66;5098453;27;63376;-47
2022/07/09 05:53:29;;;;;;;;;8.00;8.00;;;;;20.90;48.01;102549.22;5099665;27;45530;-49
2022/07/09 05:55:55;;;;;;;;;9.33;8.67;;;;;20.93;47.99;102551.69;5097012;27;45571;-50
2022/07/09 05:58:20;;;;;;;;;10.67;9.67;;;;;20.98;48.02;102557.69;5098256;27;71908;-48
2022/07/09 06:00:45;;;;;;;;;8.00;8.00;;;;;21.02;47.45;102557.50;5096195;27;45661;-47
2022/07/09 06:03:11;;;;;;;;;9.33;9.33;;;;;21.03;47.42;102557.38;5097772;27;45643;-50
2022/07/09 06:05:36;;;;;;;;;10.67;9.67;;;;;21.03;48.13;102551.09;5094919;27;57340;-48
2022/07/09 06:08:02;;;;;;;;;11.33;11.33;;;;;21.04;48.02;102552.81;5097630;27;46478;-50
2022/07/09 06:10:27;;;;;;;;;9.00;9.00;;;;;21.08;48.15;102555.25;5097316;27;45767;-48
2022/07/09 06:12:52;;;;;;;;;14.67;12.33;;;;;21.14;47.83;102559.34;5090145;27;45394;-47
2022/07/09 06:15:18;;;;;;;;;14.00;12.33;;;;;21.20;47.35;102558.94;5090622;27;62170;-47
2022/07/09 06:17:43;;;;;;;;;10.67;10.67;;;;;21.27;47.77;102559.41;5098776;27;46433;-47
2022/07/09 06:20:09;;;;;;;;;12.00;12.00;;;;;21.33;47.10;102558.97;5097353;27;45475;-50
2022/07/09 06:22:34;;;;;;;;;12.33;12.33;;;;;21.41;47.16;102561.16;5095841;27;45668;-49
2022/07/09 06:25:00;;;;;;;;;18.00;12.67;;;;;21.49;47.42;102556.94;5096580;27;45524;-50
2022/07/09 06:27:25;;;;;;;;;14.00;10.00;;;;;21.61;46.90;102563.38;5099972;27;46045;-51
2022/07/09 06:29:50;;;;;;;;;18.00;13.67;;;;;21.71;47.32;102562.75;5091836;27;45802;-50
2022/07/09 06:32:16;;;;;;;;;11.33;11.33;;;;;21.78;47.00;102566.75;5097932;27;61644;-47
2022/07/09 06:34:41;;;;;;;;;10.67;10.67;;;;;21.87;46.77;102557.97;5098840;27;45337;-47
2022/07/09 06:37:07;;;;;;;;;11.00;11.00;;;;;21.98;46.75;102555.38;5090510;27;46293;-47
2022/07/09 06:39:45;;;;;;;;;8.67;8.33;;;;;22.11;46.21;102555.38;5090352;27;67735;-48
2022/07/09 06:42:12;;;;;;;;;13.67;11.00;;;;;22.27;45.86;102554.28;5097565;27;45506;-48
2022/07/09 06:44:37;;;;;;;;;13.00;10.33;;;;;22.43;45.75;102563.03;5095684;27;45862;-50
2022/07/09 06:47:04;;;;;;;;;10.33;10.33;;;;;22.58;45.46;102562.88;5098032;27;54959;-48
2022/07/09 06:49:30;;;;;;;;;11.00;10.33;;;;;22.78;45.55;102553.28;5097522;27;46703;-47
2022/07/09 06:51:56;;;;;;;;;10.67;10.00;;;;;23.88;44.68;102553.91;5097078;27;45468;-47
2022/07/09 06:54:21;;;;;;;;;10.67;10.67;;;;;25.37;42.78;102552.69;5098214;27;45390;-52
2022/07/09 06:56:46;;;;;;;;;9.33;9.33;;;;;26.69;41.35;102552.91;5093346;27;46233;-47
2022/07/09 06:59:12;;;;;;;;;10.33;9.33;;;;;27.77;38.69;102548.28;5097729;27;69014;-49
2022/07/09 07:01:38;;;;;;;;;9.33;8.00;;;;;28.76;37.71;102552.31;5095070;27;45519;-48
2022/07/09 07:04:04;;;;;;;;;11.00;9.00;;;;;29.72;36.14;102553.47;5095618;27;45222;-47
2022/07/09 07:06:29;;;;;;;;;13.33;10.00;;;;;30.56;34.75;102544.63;5093957;27;46261;-47
2022/07/09 07:08:54;;;;;;;;;12.00;9.00;;;;;31.28;33.17;102544.91;5097312;27;56975;-48
2022/07/09 07:11:20;;;;;;;;;7.33;7.33;;;;;31.71;32.50;102543.81;5097227;27;69024;-48
2022/07/09 07:13:45;;;;;;;;;8.33;8.33;;;;;31.79;31.61;102541.06;5094249;27;45377;-46
2022/07/09 07:16:10;;;;;;;;;8.00;8.00;;;;;31.53;31.32;102547.63;5093937;27;45601;-47
2022/07/09 07:18:36;;;;;;;;;7.33;7.33;;;;;31.17;31.65;102554.34;5096478;27;68248;-47
2022/07/09 07:21:01;;;;;;;;;6.00;6.00;;;;;30.92;31.68;102555.34;5094197;27;67818;-46
2022/07/09 07:23:26;;;;;;;;;10.33;8.67;;;;;30.80;31.70;102549.31;5077069;27;54096;-47
2022/07/09 07:25:51;;;;;;;;;9.00;8.00;;;;;30.66;32.12;102554.44;5076247;27;67648;-46
2022/07/09 07:28:17;;;;;;;;;7.67;6.00;;;;;30.69;32.32;102556.00;5076599;27;60069;-48
2022/07/09 07:30:42;;;;;;;;;8.00;8.00;;;;;30.82;32.84;102545.38;5075326;27;64459;-47
2022/07/09 07:33:09;;;;;;;;;12.33;9.33;;;;;30.96;32.29;102556.72;5077384;28;45615;-47
2022/07/09 07:35:34;;;;;;;;;9.33;7.33;;;;;31.04;31.69;102556.69;5075611;27;67769;-48
2022/07/09 07:38:00;;;;;;;;;7.67;6.33;;;;;31.09;31.91;102551.59;5076605;28;45328;-47
2022/07/09 07:40:25;;;;;;;;;6.67;6.67;;;;;31.11;31.41;102559.69;5075635;27;62038;-49
2022/07/09 07:42:50;;;;;;;;;7.00;6.67;;;;;31.05;31.07;102552.13;5077454;28;45614;-47
2022/07/09 07:45:16;;;;;;;;;10.00;6.67;;;;;31.00;31.43;102555.34;5077232;27;47003;-50
2022/07/09 07:47:41;;;;;;;;;7.00;7.00;;;;;31.01;31.61;102552.41;5076843;27;45382;-47
2022/07/09 07:50:07;;;;;;;;;8.00;7.00;;;;;31.14;31.17;102551.94;5077073;28;46189;-48
2022/07/09 07:52:33;;;;;;;;;7.33;7.33;;;;;31.21;31.14;102554.00;5081896;27;45625;-47
2022/07/09 07:54:58;;;;;;;;;7.00;7.00;;;;;31.20;30.86;102552.28;5080185;27;66696;-49
2022/07/09 07:57:23;;;;;;;;;6.67;6.00;;;;;31.27;31.27;102548.66;5075669;28;69938;-47
2022/07/09 07:59:49;;;;;;;;;6.00;6.00;;;;;31.32;30.26;102545.41;5077116;27;45448;-48
2022/07/09 08:02:14;;;;;;;;;11.00;6.67;;;;;31.42;30.53;102550.72;5077044;27;67824;-46
2022/07/09 08:04:40;;;;;;;;;6.67;6.67;;;;;31.67;30.79;102544.19;5076450;27;46621;-51
2022/07/09 08:07:05;;;;;;;;;10.33;6.00;;;;;31.95;30.23;102542.91;5076436;27;45426;-48
2022/07/09 08:09:32;;;;;;;;;5.00;5.00;;;;;32.29;29.83;102547.25;5076324;27;66935;-49
2022/07/09 08:11:58;;;;;;;;;6.00;4.00;;;;;32.83;29.58;102543.69;5068459;27;45517;-47
2022/07/09 08:14:23;;;;;;;;;3.67;3.67;;;;;33.55;28.66;102545.16;5076680;27;45936;-51
2022/07/09 08:16:48;;;;;;;;;1.00;1.00;;;;;34.46;27.83;102541.34;5075827;28;45389;-58
2022/07/09 08:19:15;;;;;;;;;5.25;5.25;;;;;35.23;26.94;102550.81;5076705;28;66212;-48
2022/07/09 08:21:41;;;;;;;;;8.00;5.33;;;;;36.13;25.91;102544.63;5076066;27;45427;-48
2022/07/09 08:24:06;;;;;;;;;5.33;5.00;;;;;36.96;25.13;102526.13;5080338;27;45424;-49
2022/07/09 08:26:32;;;;;;;;;9.00;6.00;;;;;38.22;24.34;102524.19;5080173;27;45311;-51
2022/07/09 08:28:57;;;;;;;;;4.00;4.00;;;;;39.47;22.87;102538.50;5080002;27;55375;-51
2022/07/09 08:31:23;;;;;;;;;5.00;4.00;;;;;40.52;21.43;102531.00;5080863;27;45486;-50
2022/07/09 08:33:50;;;;;;;;;5.00;5.00;;;;;41.52;20.83;102536.03;5080425;27;46496;-50
2022/07/09 08:36:15;;;;;;;;;6.75;6.75;;;;;42.58;20.27;102537.63;5080445;27;45428;-52
2022/07/09 08:38:41;;;;;;;;;5.75;5.75;;;;;43.42;19.22;102536.81;5080296;28;45540;-49
2022/07/09 08:41:06;;;;;;;;;5.00;4.00;;;;;43.85;17.56;102531.50;5081130;28;45408;-53
2022/07/09 08:43:33;;;;;;;;;4.50;4.50;;;;;43.90;17.58;102537.22;5079546;28;45342;-54
2022/07/09 08:45:58;;;;;;;;;10.33;5.33;;;;;44.19;17.01;102534.16;5080993;27;45524;-48
2022/07/09 08:48:24;;;;;;;;;5.33;5.33;;;;;44.72;16.67;102533.59;5080026;27;63186;-49
2022/07/09 08:50:51;;;;;;;;;6.33;5.33;;;;;45.13;16.40;102531.13;5079587;27;45299;-51
2022/07/09 08:53:17;;;;;;;;;6.00;4.00;;;;;45.41;15.69;102523.44;5080743;27;45226;-50
2022/07/09 08:55:42;;;;;;;;;5.00;5.00;;;;;45.78;15.32;102521.66;5078146;28;45710;-49
2022/07/09 08:58:10;;;;;;;;;5.25;4.00;;;;;46.51;14.97;102513.16;5080649;27;45445;-47
2022/07/09 09:00:35;;;;;;;;;5.00;5.00;;;;;47.31;14.90;102519.28;5078847;28;45441;-47
2022/07/09 09:03:01;;;;;;;;;9.67;5.00;;;;;47.61;14.33;102509.88;5080348;27;45955;-47
2022/07/09 09:05:26;;;;;;;;;7.25;6.00;;;;;47.87;14.19;102515.41;5079052;28;64101;-47
2022/07/09 09:07:52;;;;;;;;;6.00;5.75;;;;;48.50;13.99;102511.03;5078861;27;66606;-49
2022/07/09 09:10:22;;;;;;;;;5.00;5.00;;;;;49.27;12.67;102512.31;5079409;27;64272;-46
2022/07/09 09:12:47;;;;;;;;;5.00;5.00;;;;;49.86;12.64;102510.16;5079836;27;46154;-47
2022/07/09 09:15:17;;;;;;;;;6.00;6.00;;;;;50.24;12.51;102515.81;5078914;28;45296;-47
2022/07/09 09:17:44;;;;;;;;;5.50;3.50;;;;;50.26;11.74;102505.03;5079933;27;45902;-47
2022/07/09 09:20:16;;;;;;;;;4.00;4.00;;;;;50.10;12.17;102510.06;5079373;27;45417;-47
2022/07/09 09:22:49;;;;;;;;;5.00;5.00;;;;;50.10;11.83;102510.06;5079533;27;46360;-47
2022/07/09 09:25:18;;;;;;;;;3.25;3.25;;;;;50.12;12.54;102504.97;5080209;27;45477;-47
2022/07/09 09:27:55;;;;;;;;;5.00;5.00;;;;;50.18;11.68;102496.41;5072890;27;45381;-47
2022/07/09 09:30:20;;;;;;;;;5.00;5.00;;;;;49.91;12.02;102498.78;5079276;27;45391;-47
2022/07/09 09:33:02;;;;;;;;;4.67;4.67;;;;;49.96;11.71;102495.88;5074082;27;45941;-47
2022/07/09 09:35:29;;;;;;;;;5.33;3.33;;;;;50.19;11.40;102498.91;5073392;28;45575;-47
2022/07/09 09:37:55;;;;;;;;;4.00;4.00;;;;;49.79;12.02;102510.53;5073426;28;45357;-46
2022/07/09 09:40:21;;;;;;;;;4.67;4.67;;;;;49.41;11.92;102507.63;5078486;28;45548;-46
2022/07/09 09:42:46;;;;;;;;;4.67;3.00;;;;;49.72;12.05;102507.25;5078845;27;45947;-48
2022/07/09 09:45:14;;;;;;;;;3.33;3.33;;;;;48.69;12.51;102505.53;5078857;28;45479;-47
2022/07/09 09:47:47;;;;;;;;;3.00;3.00;;;;;48.99;11.00;102514.88;5079137;27;45567;-46
2022/07/09 09:50:16;;;;;;;;;1.67;1.67;;;;;49.55;11.28;102498.41;5079554;27;45581;-46
2022/07/09 09:52:44;;;;;;;;;4.00;2.33;;;;;49.77;11.72;102501.50;5079137;27;46394;-46
2022/07/09 09:55:10;;;;;;;;;4.00;3.00;;;;;49.86;11.68;102507.34;5079258;27;45376;-47
2022/07/09 09:57:36;;;;;;;;;4.67;4.00;;;;;50.25;11.62;102500.53;5076774;28;66371;-47
2022/07/09 10:00:02;;;;;;;;;4.00;4.00;;;;;50.61;11.18;102499.06;5078387;28;61891;-47
2022/07/09 10:02:28;;;;;;;;;2.67;2.67;;;;;50.26;10.71;102493.72;5078739;27;46064;-47
2022/07/09 10:04:54;;;;;;;;;3.00;3.00;;;;;49.68;11.59;102500.50;5094169;27;52073;-46
2022/07/09 10:07:20;;;;;;;;;2.00;2.00;;;;;50.03;11.20;102505.97;5078001;28;46843;-46
2022/07/09 10:09:57;;;;;;;;;3.00;3.00;;;;;50.16;10.18;102502.38;5093090;27;45444;-47
2022/07/09 10:12:32;;;;;;;;;6.00;3.00;;;;;50.46;11.01;102505.88;5079180;28;46061;-47
2022/07/09 10:14:57;;;;;;;;;2.00;2.00;;;;;51.08;10.43;102491.41;5077722;28;45829;-49
2022/07/09 10:17:24;;;;;;;;;3.00;2.00;;;;;51.67;10.81;102495.56;5078867;27;45915;-47
2022/07/09 10:20:16;;;;;;;;;2.67;2.00;;;;;51.86;10.33;102498.28;5078582;28;45361;-46
2022/07/09 10:22:44;;;;;;;;;3.00;3.00;;;;;52.01;9.77;102495.09;5070328;28;45448;-47
2022/07/09 10:25:14;;;;;;;;;4.67;4.33;;;;;52.32;10.07;102497.16;5077407;28;45495;-48
2022/07/09 10:27:47;;;;;;;;;2.75;2.00;;;;;52.62;9.62;102491.84;5076913;27;45475;-47
2022/07/09 10:30:32;;;;;;;;;1.67;1.67;;;;;52.60;9.71;102500.69;5076970;27;45607;-46
2022/07/09 10:33:03;;;;;;;;;5.33;4.00;;;;;52.34;9.33;102505.38;5079048;27;46328;-48
2022/07/09 10:35:30;;;;;;;;;2.75;2.75;;;;;52.19;9.17;102492.41;5077313;28;45513;-46
2022/07/09 10:37:55;;;;;;;;;5.67;4.33;;;;;52.14;9.36;102501.03;5078762;27;45483;-47
2022/07/09 10:40:22;;;;;;;;;1.00;1.00;;;;;52.43;9.68;102484.41;5077821;28;58927;-46
2022/07/09 10:42:59;;;;;;;;;3.67;3.33;;;;;52.89;8.89;102481.50;5077662;27;45489;-47
2022/07/09 10:45:31;;;;;;;;;4.67;2.67;;;;;52.85;9.19;102467.13;5077819;27;45437;-47
2022/07/09 10:47:58;;;;;;;;;3.00;3.00;;;;;52.58;8.98;102483.16;5078735;28;45548;-46
2022/07/09 10:50:25;;;;;;;;;2.50;1.00;;;;;52.49;8.78;102481.44;5080205;27;45506;-46
2022/07/09 10:52:51;;;;;;;;;6.33;3.00;;;;;52.43;8.73;102472.25;5078922;27;45382;-46
2022/07/09 10:55:21;;;;;;;;;4.00;4.00;;;;;52.67;9.27;102466.16;5077282;27;45488;-47
2022/07/09 10:57:46;;;;;;;;;4.67;3.67;;;;;52.68;8.92;102461.34;5074915;28;45391;-46
2022/07/09 11:00:16;;;;;;;;;2.00;2.00;;;;;52.68;9.16;102456.50;5078172;27;45335;-46
2022/07/09 11:03:01;;;;;;;;;3.00;3.00;;;;;49.74;9.51;102459.75;5077936;27;46607;-47
2022/07/09 11:05:27;;;;;;;;;7.67;3.67;;;;;46.07;11.72;102441.38;5076825;28;45378;-48
2022/07/09 11:08:01;;;;;;;;;5.33;5.33;;;;;42.90;13.83;102456.81;5077951;27;45471;-45
2022/07/09 11:10:28;;;;;;;;;3.50;3.00;;;;;40.65;15.46;102451.91;5078555;27;45367;-47
2022/07/09 11:12:59;;;;;;;;;3.00;3.00;;;;;41.38;15.64;102444.13;5078063;27;46346;-47
2022/07/09 11:15:26;;;;;;;;;2.75;2.75;;;;;42.28;14.98;102432.56;5076889;27;45528;-46
2022/07/09 11:18:00;;;;;;;;;5.00;3.33;;;;;44.85;13.27;102440.59;5077921;27;45853;-46
2022/07/09 11:20:29;;;;;;;;;3.33;3.33;;;;;46.63;12.49;102444.53;5077923;27;45363;-46